sensor_id;sensor_type;location;lat;lon;timestamp;pressure;altitude;pressure_sealevel;temperature;humidity
19783;BME280;10051;40.294;-3.754;2023-04-22T00:00:53;93346.97;;;18.20;56.52
19783;BME280;10051;40.294;-3.754;2023-04-22T00:03:19;93370.22;;;18.23;56.87
19783;BME280;10051;40.294;-3.754;2023-04-22T00:05:46;93374.69;;;18.19;57.25
19783;BME280;10051;40.294;-3.754;2023-04-22T00:08:12;93362.50;;;18.18;57.54
19783;BME280;10051;40.294;-3.754;2023-04-22T00:10:38;93344.84;;;18.09;57.73
19783;BME280;10051;40.294;-3.754;2023-04-22T00:13:03;93350.56;;;18.11;57.55
19783;BME280;10051;40.294;-3.754;2023-04-22T00:15:29;93360.09;;;18.12;58.31
19783;BME280;10051;40.294;-3.754;2023-04-22T00:17:55;93363.88;;;18.11;58.49
19783;BME280;10051;40.294;-3.754;2023-04-22T00:20:21;93350.34;;;18.01;58.74
19783;BME280;10051;40.294;-3.754;2023-04-22T00:22:47;93376.31;;;18.07;59.88
19783;BME280;10051;40.294;-3.754;2023-04-22T00:25:12;93379.78;;;18.08;60.80
19783;BME280;10051;40.294;-3.754;2023-04-22T00:27:38;93364.13;;;18.06;61.98
19783;BME280;10051;40.294;-3.754;2023-04-22T00:30:04;93346.56;;;17.86;63.79
19783;BME280;10051;40.294;-3.754;2023-04-22T00:32:30;93361.22;;;17.95;65.57
19783;BME280;10051;40.294;-3.754;2023-04-22T00:34:55;93351.69;;;17.78;67.61
19783;BME280;10051;40.294;-3.754;2023-04-22T00:37:22;93330.75;;;17.45;68.93
19783;BME280;10051;40.294;-3.754;2023-04-22T00:39:48;93393.38;;;17.74;69.35
19783;BME280;10051;40.294;-3.754;2023-04-22T00:42:15;93397.66;;;17.63;71.86
19783;BME280;10051;40.294;-3.754;2023-04-22T00:44:41;93359.91;;;17.41;73.10
19783;BME280;10051;40.294;-3.754;2023-04-22T00:47:07;93333.16;;;17.34;73.19
19783;BME280;10051;40.294;-3.754;2023-04-22T00:49:34;93364.19;;;17.46;74.07
19783;BME280;10051;40.294;-3.754;2023-04-22T00:52:01;93356.56;;;17.44;74.12
19783;BME280;10051;40.294;-3.754;2023-04-22T00:54:27;93375.00;;;17.37;75.25
19783;BME280;10051;40.294;-3.754;2023-04-22T00:56:53;93319.19;;;16.92;75.26
19783;BME280;10051;40.294;-3.754;2023-04-22T00:59:20;93336.84;;;17.01;76.34
19783;BME280;10051;40.294;-3.754;2023-04-22T01:01:46;93330.63;;;17.09;75.51
19783;BME280;10051;40.294;-3.754;2023-04-22T01:04:12;93348.28;;;17.17;74.79
19783;BME280;10051;40.294;-3.754;2023-04-22T01:06:39;93369.34;;;17.10;76.50
19783;BME280;10051;40.294;-3.754;2023-04-22T01:09:06;93343.13;;;17.08;76.64
19783;BME280;10051;40.294;-3.754;2023-04-22T01:11:33;93348.09;;;17.10;76.92
19783;BME280;10051;40.294;-3.754;2023-04-22T01:13:59;93345.56;;;17.14;77.50
19783;BME280;10051;40.294;-3.754;2023-04-22T01:16:25;93337.00;;;17.20;78.55
19783;BME280;10051;40.294;-3.754;2023-04-22T01:18:53;93324.22;;;17.26;77.71
19783;BME280;10051;40.294;-3.754;2023-04-22T01:21:18;93336.81;;;17.29;77.35
19783;BME280;10051;40.294;-3.754;2023-04-22T01:23:47;93335.13;;;17.37;76.00
19783;BME280;10051;40.294;-3.754;2023-04-22T01:26:13;93328.84;;;17.29;76.88
19783;BME280;10051;40.294;-3.754;2023-04-22T01:28:38;93317.34;;;17.25;76.02
19783;BME280;10051;40.294;-3.754;2023-04-22T01:31:06;93324.31;;;17.14;76.96
19783;BME280;10051;40.294;-3.754;2023-04-22T01:33:33;93328.75;;;17.09;77.32
19783;BME280;10051;40.294;-3.754;2023-04-22T01:35:58;93305.09;;;17.04;77.19
19783;BME280;10051;40.294;-3.754;2023-04-22T01:38:24;93328.84;;;17.13;77.38
19783;BME280;10051;40.294;-3.754;2023-04-22T01:40:50;93315.91;;;16.83;78.45
19783;BME280;10051;40.294;-3.754;2023-04-22T01:43:15;93327.50;;;16.78;78.75
19783;BME280;10051;40.294;-3.754;2023-04-22T01:45:41;93337.66;;;16.89;79.76
19783;BME280;10051;40.294;-3.754;2023-04-22T01:48:06;93335.53;;;16.94;79.70
19783;BME280;10051;40.294;-3.754;2023-04-22T01:50:32;93326.56;;;16.71;80.44
19783;BME280;10051;40.294;-3.754;2023-04-22T01:52:58;93319.69;;;16.70;80.05
19783;BME280;10051;40.294;-3.754;2023-04-22T01:55:24;93346.63;;;16.84;80.56
19783;BME280;10051;40.294;-3.754;2023-04-22T01:57:49;93351.75;;;16.77;81.04
19783;BME280;10051;40.294;-3.754;2023-04-22T02:00:16;93343.59;;;16.57;82.32
19783;BME280;10051;40.294;-3.754;2023-04-22T02:02:42;93345.34;;;16.65;82.18
19783;BME280;10051;40.294;-3.754;2023-04-22T02:05:08;93304.53;;;16.42;82.00
19783;BME280;10051;40.294;-3.754;2023-04-22T02:07:34;93363.44;;;16.88;81.34
19783;BME280;10051;40.294;-3.754;2023-04-22T02:10:04;93355.59;;;16.79;81.30
19783;BME280;10051;40.294;-3.754;2023-04-22T02:12:30;93352.22;;;16.67;81.82
19783;BME280;10051;40.294;-3.754;2023-04-22T02:14:57;93357.91;;;16.53;83.80
19783;BME280;10051;40.294;-3.754;2023-04-22T02:17:22;93347.69;;;16.67;82.45
19783;BME280;10051;40.294;-3.754;2023-04-22T02:19:48;93353.38;;;16.82;81.76
19783;BME280;10051;40.294;-3.754;2023-04-22T02:22:13;93358.16;;;16.76;81.88
19783;BME280;10051;40.294;-3.754;2023-04-22T02:24:39;93364.88;;;16.86;81.65
19783;BME280;10051;40.294;-3.754;2023-04-22T02:27:05;93354.94;;;16.83;82.03
19783;BME280;10051;40.294;-3.754;2023-04-22T02:29:33;93352.53;;;16.77;82.62
19783;BME280;10051;40.294;-3.754;2023-04-22T02:32:01;93352.22;;;16.67;82.76
19783;BME280;10051;40.294;-3.754;2023-04-22T02:34:27;93305.09;;;16.35;82.51
19783;BME280;10051;40.294;-3.754;2023-04-22T02:36:52;93330.84;;;16.34;83.64
19783;BME280;10051;40.294;-3.754;2023-04-22T02:39:18;93348.00;;;16.65;82.74
19783;BME280;10051;40.294;-3.754;2023-04-22T02:41:44;93334.75;;;16.65;82.46
19783;BME280;10051;40.294;-3.754;2023-04-22T02:44:09;93314.84;;;16.59;81.46
19783;BME280;10051;40.294;-3.754;2023-04-22T02:46:34;93341.81;;;16.74;81.77
19783;BME280;10051;40.294;-3.754;2023-04-22T02:49:00;93349.31;;;16.72;82.71
19783;BME280;10051;40.294;-3.754;2023-04-22T02:51:26;93362.66;;;16.88;84.67
19783;BME280;10051;40.294;-3.754;2023-04-22T02:53:52;93344.59;;;16.65;86.25
19783;BME280;10051;40.294;-3.754;2023-04-22T02:56:17;93293.75;;;16.22;87.73
19783;BME280;10051;40.294;-3.754;2023-04-22T02:58:43;93329.16;;;16.55;86.36
19783;BME280;10051;40.294;-3.754;2023-04-22T03:01:08;93380.06;;;16.73;86.35
19783;BME280;10051;40.294;-3.754;2023-04-22T03:03:34;93385.53;;;16.64;86.62
19783;BME280;10051;40.294;-3.754;2023-04-22T03:06:00;93356.84;;;16.29;87.41
19783;BME280;10051;40.294;-3.754;2023-04-22T03:08:25;93380.59;;;16.38;88.90
19783;BME280;10051;40.294;-3.754;2023-04-22T03:10:51;93366.44;;;16.21;89.91
19783;BME280;10051;40.294;-3.754;2023-04-22T03:13:16;93318.31;;;15.94;90.47
19783;BME280;10051;40.294;-3.754;2023-04-22T03:15:42;93337.84;;;16.14;90.22
19783;BME280;10051;40.294;-3.754;2023-04-22T03:18:08;93385.59;;;16.27;91.76
19783;BME280;10051;40.294;-3.754;2023-04-22T03:20:34;93359.81;;;16.15;91.01
19783;BME280;10051;40.294;-3.754;2023-04-22T03:22:59;93344.38;;;16.04;91.12
19783;BME280;10051;40.294;-3.754;2023-04-22T03:25:28;93387.66;;;16.33;92.11
19783;BME280;10051;40.294;-3.754;2023-04-22T03:27:54;93385.00;;;16.33;92.20
19783;BME280;10051;40.294;-3.754;2023-04-22T03:30:19;93383.81;;;16.31;90.74
19783;BME280;10051;40.294;-3.754;2023-04-22T03:32:45;93364.59;;;16.22;86.14
19783;BME280;10051;40.294;-3.754;2023-04-22T03:35:11;93379.72;;;16.21;85.55
19783;BME280;10051;40.294;-3.754;2023-04-22T03:37:36;93356.31;;;15.98;87.26
19783;BME280;10051;40.294;-3.754;2023-04-22T03:40:02;93394.53;;;16.10;88.32
19783;BME280;10051;40.294;-3.754;2023-04-22T03:42:30;93397.84;;;16.31;86.61
19783;BME280;10051;40.294;-3.754;2023-04-22T03:44:55;93402.91;;;16.37;85.31
19783;BME280;10051;40.294;-3.754;2023-04-22T03:47:21;93329.09;;;15.76;84.82
19783;BME280;10051;40.294;-3.754;2023-04-22T03:49:46;93386.03;;;16.16;84.96
19783;BME280;10051;40.294;-3.754;2023-04-22T03:52:12;93370.22;;;16.20;83.75
19783;BME280;10051;40.294;-3.754;2023-04-22T03:54:37;93361.38;;;16.16;85.55
19783;BME280;10051;40.294;-3.754;2023-04-22T03:57:03;93370.22;;;15.95;88.35
19783;BME280;10051;40.294;-3.754;2023-04-22T03:59:28;93376.50;;;15.90;90.30
19783;BME280;10051;40.294;-3.754;2023-04-22T04:01:54;93390.13;;;16.01;90.71
19783;BME280;10051;40.294;-3.754;2023-04-22T04:04:19;93360.38;;;15.96;91.21
19783;BME280;10051;40.294;-3.754;2023-04-22T04:06:47;93358.63;;;16.00;89.87
19783;BME280;10051;40.294;-3.754;2023-04-22T04:09:12;93375.28;;;16.25;87.95
19783;BME280;10051;40.294;-3.754;2023-04-22T04:11:40;93377.28;;;16.16;89.13
19783;BME280;10051;40.294;-3.754;2023-04-22T04:14:06;93388.00;;;16.07;89.15
19783;BME280;10051;40.294;-3.754;2023-04-22T04:16:32;93331.22;;;15.71;89.02
19783;BME280;10051;40.294;-3.754;2023-04-22T04:18:57;93388.00;;;16.07;89.59
19783;BME280;10051;40.294;-3.754;2023-04-22T04:21:23;93397.59;;;16.12;89.55
19783;BME280;10051;40.294;-3.754;2023-04-22T04:23:49;93388.13;;;16.11;89.49
19783;BME280;10051;40.294;-3.754;2023-04-22T04:26:14;93393.09;;;16.12;89.34
19783;BME280;10051;40.294;-3.754;2023-04-22T04:28:40;93381.28;;;16.10;89.35
19783;BME280;10051;40.294;-3.754;2023-04-22T04:31:06;93374.09;;;16.10;89.10
19783;BME280;10051;40.294;-3.754;2023-04-22T04:33:32;93388.91;;;16.24;89.08
19783;BME280;10051;40.294;-3.754;2023-04-22T04:35:58;93361.84;;;16.05;89.02
19783;BME280;10051;40.294;-3.754;2023-04-22T04:38:24;93367.59;;;16.08;89.45
19783;BME280;10051;40.294;-3.754;2023-04-22T04:40:50;93393.75;;;16.22;88.76
19783;BME280;10051;40.294;-3.754;2023-04-22T04:43:19;93381.69;;;16.12;88.92
19783;BME280;10051;40.294;-3.754;2023-04-22T04:45:45;93390.75;;;16.23;89.46
19783;BME280;10051;40.294;-3.754;2023-04-22T04:48:14;93403.34;;;16.14;89.92
19783;BME280;10051;40.294;-3.754;2023-04-22T04:50:43;93381.28;;;15.97;90.60
19783;BME280;10051;40.294;-3.754;2023-04-22T04:53:09;93392.41;;;15.90;93.32
19783;BME280;10051;40.294;-3.754;2023-04-22T04:55:35;93397.63;;;15.99;97.11
19783;BME280;10051;40.294;-3.754;2023-04-22T04:58:01;93400.72;;;16.01;98.05
19783;BME280;10051;40.294;-3.754;2023-04-22T05:00:26;93401.38;;;15.98;97.50
19783;BME280;10051;40.294;-3.754;2023-04-22T05:02:52;93340.38;;;15.61;96.77
19783;BME280;10051;40.294;-3.754;2023-04-22T05:05:17;93407.00;;;15.97;96.40
19783;BME280;10051;40.294;-3.754;2023-04-22T05:07:43;93403.47;;;15.93;95.70
19783;BME280;10051;40.294;-3.754;2023-04-22T05:10:09;93419.94;;;15.98;95.95
19783;BME280;10051;40.294;-3.754;2023-04-22T05:12:35;93400.00;;;15.80;98.50
19783;BME280;10051;40.294;-3.754;2023-04-22T05:15:00;93404.31;;;15.72;98.77
19783;BME280;10051;40.294;-3.754;2023-04-22T05:17:26;93433.72;;;15.91;97.67
19783;BME280;10051;40.294;-3.754;2023-04-22T05:19:52;93417.59;;;15.84;98.61
19783;BME280;10051;40.294;-3.754;2023-04-22T05:22:17;93397.22;;;15.64;99.17
19783;BME280;10051;40.294;-3.754;2023-04-22T05:24:43;93423.16;;;15.70;99.13
19783;BME280;10051;40.294;-3.754;2023-04-22T05:27:09;93370.09;;;15.33;98.18
19783;BME280;10051;40.294;-3.754;2023-04-22T05:29:35;93419.97;;;15.65;98.23
19783;BME280;10051;40.294;-3.754;2023-04-22T05:32:00;93387.13;;;15.44;99.87
19783;BME280;10051;40.294;-3.754;2023-04-22T05:34:26;93434.09;;;15.69;100.00
19783;BME280;10051;40.294;-3.754;2023-04-22T05:36:52;93430.00;;;15.71;98.95
19783;BME280;10051;40.294;-3.754;2023-04-22T05:39:17;93435.69;;;15.82;98.60
19783;BME280;10051;40.294;-3.754;2023-04-22T05:41:43;93421.28;;;15.58;99.07
19783;BME280;10051;40.294;-3.754;2023-04-22T05:44:08;93417.81;;;15.45;100.00
19783;BME280;10051;40.294;-3.754;2023-04-22T05:46:34;93435.28;;;15.46;100.00
19783;BME280;10051;40.294;-3.754;2023-04-22T05:49:00;93432.06;;;15.41;100.00
19783;BME280;10051;40.294;-3.754;2023-04-22T05:51:25;93459.34;;;15.54;100.00
19783;BME280;10051;40.294;-3.754;2023-04-22T05:53:51;93395.97;;;15.15;100.00
19783;BME280;10051;40.294;-3.754;2023-04-22T05:56:18;93439.81;;;15.25;100.00
19783;BME280;10051;40.294;-3.754;2023-04-22T05:58:45;93475.69;;;15.56;100.00
19783;BME280;10051;40.294;-3.754;2023-04-22T06:01:11;93463.59;;;15.67;99.29
19783;BME280;10051;40.294;-3.754;2023-04-22T06:03:36;93408.19;;;15.28;97.90
19783;BME280;10051;40.294;-3.754;2023-04-22T06:06:02;93389.03;;;14.68;100.00
19783;BME280;10051;40.294;-3.754;2023-04-22T06:08:29;93416.25;;;14.68;100.00
19783;BME280;10051;40.294;-3.754;2023-04-22T06:10:55;93456.25;;;14.97;100.00
19783;BME280;10051;40.294;-3.754;2023-04-22T06:13:20;93436.16;;;14.96;100.00
19783;BME280;10051;40.294;-3.754;2023-04-22T06:15:46;93452.56;;;15.10;100.00
19783;BME280;10051;40.294;-3.754;2023-04-22T06:18:11;93445.72;;;15.09;100.00
19783;BME280;10051;40.294;-3.754;2023-04-22T06:20:38;93409.44;;;14.89;100.00
19783;BME280;10051;40.294;-3.754;2023-04-22T06:23:03;93427.91;;;14.97;100.00
19783;BME280;10051;40.294;-3.754;2023-04-22T06:25:30;93466.09;;;15.30;100.00
19783;BME280;10051;40.294;-3.754;2023-04-22T06:27:57;93437.25;;;15.16;100.00
19783;BME280;10051;40.294;-3.754;2023-04-22T06:30:23;93463.41;;;15.18;100.00
19783;BME280;10051;40.294;-3.754;2023-04-22T06:32:50;93434.94;;;15.14;100.00
19783;BME280;10051;40.294;-3.754;2023-04-22T06:35:16;93489.72;;;15.56;100.00
19783;BME280;10051;40.294;-3.754;2023-04-22T06:37:41;93491.59;;;15.56;100.00
19783;BME280;10051;40.294;-3.754;2023-04-22T06:40:07;93502.00;;;15.61;100.00
19783;BME280;10051;40.294;-3.754;2023-04-22T06:42:33;93504.75;;;15.65;100.00
19783;BME280;10051;40.294;-3.754;2023-04-22T06:44:59;93498.44;;;15.57;100.00
19783;BME280;10051;40.294;-3.754;2023-04-22T06:47:24;93519.25;;;15.67;100.00
19783;BME280;10051;40.294;-3.754;2023-04-22T06:49:50;93511.28;;;15.67;100.00
19783;BME280;10051;40.294;-3.754;2023-04-22T06:52:16;93491.41;;;15.61;99.28
19783;BME280;10051;40.294;-3.754;2023-04-22T06:54:41;93454.16;;;15.24;100.00
19783;BME280;10051;40.294;-3.754;2023-04-22T06:57:07;93527.31;;;15.71;100.00
19783;BME280;10051;40.294;-3.754;2023-04-22T06:59:35;93492.34;;;15.44;100.00
19783;BME280;10051;40.294;-3.754;2023-04-22T07:02:01;93533.78;;;15.61;100.00
19783;BME280;10051;40.294;-3.754;2023-04-22T07:04:26;93512.84;;;15.47;100.00
19783;BME280;10051;40.294;-3.754;2023-04-22T07:06:53;93539.09;;;15.61;100.00
19783;BME280;10051;40.294;-3.754;2023-04-22T07:09:19;93532.88;;;15.57;100.00
19783;BME280;10051;40.294;-3.754;2023-04-22T07:11:45;93524.81;;;15.32;100.00
19783;BME280;10051;40.294;-3.754;2023-04-22T07:14:10;93525.53;;;15.20;100.00
19783;BME280;10051;40.294;-3.754;2023-04-22T07:16:36;93549.44;;;15.32;100.00
19783;BME280;10051;40.294;-3.754;2023-04-22T07:19:03;93492.03;;;15.03;100.00
19783;BME280;10051;40.294;-3.754;2023-04-22T07:21:30;93515.72;;;15.21;99.21
19783;BME280;10051;40.294;-3.754;2023-04-22T07:23:57;93519.06;;;15.30;99.42
19783;BME280;10051;40.294;-3.754;2023-04-22T07:26:23;93559.50;;;15.39;99.05
19783;BME280;10051;40.294;-3.754;2023-04-22T07:28:48;93539.59;;;15.33;99.40
19783;BME280;10051;40.294;-3.754;2023-04-22T07:31:14;93554.94;;;15.49;99.64
19783;BME280;10051;40.294;-3.754;2023-04-22T07:33:40;93553.50;;;15.51;97.37
19783;BME280;10051;40.294;-3.754;2023-04-22T07:36:05;93537.09;;;15.37;99.16
19783;BME280;10051;40.294;-3.754;2023-04-22T07:38:31;93547.97;;;15.44;97.98
19783;BME280;10051;40.294;-3.754;2023-04-22T07:40:57;93543.50;;;15.57;98.40
19783;BME280;10051;40.294;-3.754;2023-04-22T07:43:22;93543.84;;;15.68;95.00
19783;BME280;10051;40.294;-3.754;2023-04-22T07:45:48;93543.59;;;15.60;94.03
19783;BME280;10051;40.294;-3.754;2023-04-22T07:48:13;93524.88;;;15.44;94.47
19783;BME280;10051;40.294;-3.754;2023-04-22T07:50:39;93558.47;;;15.95;94.48
19783;BME280;10051;40.294;-3.754;2023-04-22T07:53:04;93543.16;;;16.13;93.08
19783;BME280;10051;40.294;-3.754;2023-04-22T07:55:30;93555.13;;;16.32;93.36
19783;BME280;10051;40.294;-3.754;2023-04-22T07:57:56;93525.38;;;16.26;91.28
19783;BME280;10051;40.294;-3.754;2023-04-22T08:00:22;93568.53;;;16.73;89.80
19783;BME280;10051;40.294;-3.754;2023-04-22T08:02:47;93579.38;;;16.92;88.07
19783;BME280;10051;40.294;-3.754;2023-04-22T08:05:13;93558.78;;;16.77;88.42
19783;BME280;10051;40.294;-3.754;2023-04-22T08:07:38;93564.56;;;16.91;86.08
19783;BME280;10051;40.294;-3.754;2023-04-22T08:10:05;93582.91;;;17.21;85.15
19783;BME280;10051;40.294;-3.754;2023-04-22T08:12:30;93571.19;;;17.22;84.48
19783;BME280;10051;40.294;-3.754;2023-04-22T08:14:56;93589.97;;;17.42;85.03
19783;BME280;10051;40.294;-3.754;2023-04-22T08:17:22;93567.06;;;17.25;84.30
19783;BME280;10051;40.294;-3.754;2023-04-22T08:19:48;93595.16;;;17.38;82.50
19783;BME280;10051;40.294;-3.754;2023-04-22T08:22:14;93545.63;;;16.93;83.72
19783;BME280;10051;40.294;-3.754;2023-04-22T08:24:40;93599.38;;;17.27;84.88
19783;BME280;10051;40.294;-3.754;2023-04-22T08:27:06;93597.75;;;17.22;82.67
19783;BME280;10051;40.294;-3.754;2023-04-22T08:29:31;93595.97;;;17.27;80.07
19783;BME280;10051;40.294;-3.754;2023-04-22T08:31:57;93579.25;;;17.26;80.39
19783;BME280;10051;40.294;-3.754;2023-04-22T08:34:23;93594.13;;;17.56;79.15
19783;BME280;10051;40.294;-3.754;2023-04-22T08:36:50;93595.00;;;17.72;78.19
19783;BME280;10051;40.294;-3.754;2023-04-22T08:39:16;93609.44;;;17.87;77.63
19783;BME280;10051;40.294;-3.754;2023-04-22T08:41:43;93605.00;;;17.91;76.00
19783;BME280;10051;40.294;-3.754;2023-04-22T08:44:09;93611.53;;;17.94;76.46
19783;BME280;10051;40.294;-3.754;2023-04-22T08:46:35;93606.69;;;17.83;77.63
19783;BME280;10051;40.294;-3.754;2023-04-22T08:49:01;93584.16;;;17.65;77.52
19783;BME280;10051;40.294;-3.754;2023-04-22T08:51:29;93621.47;;;17.97;77.49
19783;BME280;10051;40.294;-3.754;2023-04-22T08:53:56;93621.03;;;18.07;76.36
19783;BME280;10051;40.294;-3.754;2023-04-22T08:56:23;93622.78;;;18.16;74.66
19783;BME280;10051;40.294;-3.754;2023-04-22T08:58:49;93603.09;;;17.92;73.67
19783;BME280;10051;40.294;-3.754;2023-04-22T09:01:16;93609.53;;;17.91;73.17
19783;BME280;10051;40.294;-3.754;2023-04-22T09:03:43;93641.00;;;18.01;72.14
19783;BME280;10051;40.294;-3.754;2023-04-22T09:06:10;93624.09;;;17.81;73.41
19783;BME280;10051;40.294;-3.754;2023-04-22T09:08:37;93646.75;;;18.03;72.97
19783;BME280;10051;40.294;-3.754;2023-04-22T09:11:03;93638.41;;;17.76;72.24
19783;BME280;10051;40.294;-3.754;2023-04-22T09:13:31;93583.97;;;17.45;71.67
19783;BME280;10051;40.294;-3.754;2023-04-22T09:15:58;93637.25;;;17.90;73.32
19783;BME280;10051;40.294;-3.754;2023-04-22T09:18:24;93641.22;;;17.96;72.58
19783;BME280;10051;40.294;-3.754;2023-04-22T09:20:54;93668.31;;;18.14;69.06
19783;BME280;10051;40.294;-3.754;2023-04-22T09:23:19;93634.56;;;18.02;70.33
19783;BME280;10051;40.294;-3.754;2023-04-22T09:25:46;93643.94;;;18.12;70.41
19783;BME280;10051;40.294;-3.754;2023-04-22T09:28:16;93646.97;;;18.10;68.62
19783;BME280;10051;40.294;-3.754;2023-04-22T09:30:44;93677.00;;;18.39;69.37
19783;BME280;10051;40.294;-3.754;2023-04-22T09:33:10;93670.66;;;18.44;69.82
19783;BME280;10051;40.294;-3.754;2023-04-22T09:35:39;93669.56;;;18.61;68.62
19783;BME280;10051;40.294;-3.754;2023-04-22T09:38:10;93653.66;;;18.49;63.74
19783;BME280;10051;40.294;-3.754;2023-04-22T09:40:40;93651.44;;;18.51;62.52
19783;BME280;10051;40.294;-3.754;2023-04-22T09:43:07;93673.97;;;18.69;63.56
19783;BME280;10051;40.294;-3.754;2023-04-22T09:45:38;93666.25;;;18.80;62.26
19783;BME280;10051;40.294;-3.754;2023-04-22T09:50:33;93681.38;;;18.92;61.09
19783;BME280;10051;40.294;-3.754;2023-04-22T09:53:01;93683.75;;;19.10;58.15
19783;BME280;10051;40.294;-3.754;2023-04-22T09:55:29;93690.94;;;19.25;57.82
19783;BME280;10051;40.294;-3.754;2023-04-22T09:57:56;93695.31;;;19.34;56.89
19783;BME280;10051;40.294;-3.754;2023-04-22T10:00:28;93691.72;;;19.26;54.95
19783;BME280;10051;40.294;-3.754;2023-04-22T10:02:54;93667.25;;;19.20;54.47
19783;BME280;10051;40.294;-3.754;2023-04-22T10:05:19;93660.19;;;19.12;54.93
19783;BME280;10051;40.294;-3.754;2023-04-22T10:07:45;93679.94;;;19.27;55.02
19783;BME280;10051;40.294;-3.754;2023-04-22T10:10:11;93685.09;;;19.36;54.87
19783;BME280;10051;40.294;-3.754;2023-04-22T10:12:37;93672.38;;;19.29;54.25
19783;BME280;10051;40.294;-3.754;2023-04-22T10:15:06;93680.63;;;19.40;56.26
19783;BME280;10051;40.294;-3.754;2023-04-22T10:17:41;93678.19;;;19.51;57.10
19783;BME280;10051;40.294;-3.754;2023-04-22T10:20:10;93663.47;;;19.57;56.89
19783;BME280;10051;40.294;-3.754;2023-04-22T10:22:41;93692.16;;;19.80;55.96
19783;BME280;10051;40.294;-3.754;2023-04-22T10:25:30;93680.41;;;19.65;57.13
19783;BME280;10051;40.294;-3.754;2023-04-22T10:28:04;93681.75;;;19.74;55.95
19783;BME280;10051;40.294;-3.754;2023-04-22T10:30:32;93693.97;;;19.75;55.54
19783;BME280;10051;40.294;-3.754;2023-04-22T10:33:36;93687.50;;;19.93;54.25
19783;BME280;10051;40.294;-3.754;2023-04-22T10:41:31;93686.66;;;20.28;53.98
19783;BME280;10051;40.294;-3.754;2023-04-22T10:43:59;93697.91;;;20.17;53.37
19783;BME280;10051;40.294;-3.754;2023-04-22T10:49:20;93694.53;;;20.20;53.84
19783;BME280;10051;40.294;-3.754;2023-04-22T10:51:51;93703.25;;;20.37;52.61
19783;BME280;10051;40.294;-3.754;2023-04-22T10:57:06;93708.84;;;20.12;52.60
19783;BME280;10051;40.294;-3.754;2023-04-22T10:59:33;93712.78;;;20.18;52.75
19783;BME280;10051;40.294;-3.754;2023-04-22T11:02:04;93706.06;;;20.25;54.00
19783;BME280;10051;40.294;-3.754;2023-04-22T11:04:30;93707.19;;;20.43;53.57
19783;BME280;10051;40.294;-3.754;2023-04-22T11:15:17;93691.88;;;20.20;51.00
19783;BME280;10051;40.294;-3.754;2023-04-22T11:17:50;93718.44;;;20.33;52.11
19783;BME280;10051;40.294;-3.754;2023-04-22T11:20:16;93720.25;;;20.48;52.03
19783;BME280;10051;40.294;-3.754;2023-04-22T11:22:44;93692.44;;;20.49;51.15
19783;BME280;10051;40.294;-3.754;2023-04-22T11:25:10;93717.50;;;20.84;50.85
19783;BME280;10051;40.294;-3.754;2023-04-22T11:27:37;93712.03;;;21.00;50.48
19783;BME280;10051;40.294;-3.754;2023-04-22T11:32:29;93704.03;;;21.00;48.63
19783;BME280;10051;40.294;-3.754;2023-04-22T11:34:55;93712.28;;;21.15;48.07
19783;BME280;10051;40.294;-3.754;2023-04-22T11:37:21;93714.25;;;21.18;46.08
19783;BME280;10051;40.294;-3.754;2023-04-22T11:39:47;93691.63;;;21.12;46.84
19783;BME280;10051;40.294;-3.754;2023-04-22T11:42:12;93692.44;;;21.16;47.16
19783;BME280;10051;40.294;-3.754;2023-04-22T11:44:38;93720.31;;;21.38;47.23
19783;BME280;10051;40.294;-3.754;2023-04-22T11:47:04;93683.19;;;21.09;46.93
19783;BME280;10051;40.294;-3.754;2023-04-22T11:49:30;93693.28;;;21.20;46.17
19783;BME280;10051;40.294;-3.754;2023-04-22T11:51:58;93688.66;;;21.17;46.85
19783;BME280;10051;40.294;-3.754;2023-04-22T11:54:35;93690.34;;;21.29;46.02
19783;BME280;10051;40.294;-3.754;2023-04-22T11:57:03;93699.16;;;21.29;45.80
19783;BME280;10051;40.294;-3.754;2023-04-22T11:59:28;93706.88;;;21.34;45.27
19783;BME280;10051;40.294;-3.754;2023-04-22T12:01:54;93692.75;;;21.10;44.56
19783;BME280;10051;40.294;-3.754;2023-04-22T12:04:20;93709.56;;;21.34;45.83
19783;BME280;10051;40.294;-3.754;2023-04-22T12:06:46;93668.28;;;21.08;46.95
19783;BME280;10051;40.294;-3.754;2023-04-22T12:09:12;93720.41;;;21.68;43.66
19783;BME280;10051;40.294;-3.754;2023-04-22T12:11:38;93698.34;;;21.52;41.55
19783;BME280;10051;40.294;-3.754;2023-04-22T12:14:06;93667.81;;;21.53;42.03
19783;BME280;10051;40.294;-3.754;2023-04-22T12:16:41;93691.41;;;21.71;40.89
19783;BME280;10051;40.294;-3.754;2023-04-22T12:19:07;93693.34;;;21.74;40.36
19783;BME280;10051;40.294;-3.754;2023-04-22T12:21:33;93708.09;;;21.91;41.00
19783;BME280;10051;40.294;-3.754;2023-04-22T12:24:00;93715.56;;;22.05;40.51
19783;BME280;10051;40.294;-3.754;2023-04-22T12:26:29;93706.69;;;22.01;40.22
19783;BME280;10051;40.294;-3.754;2023-04-22T12:28:57;93685.19;;;21.63;40.54
19783;BME280;10051;40.294;-3.754;2023-04-22T12:31:23;93717.53;;;21.81;41.42
19783;BME280;10051;40.294;-3.754;2023-04-22T12:33:49;93681.72;;;21.62;39.83
19783;BME280;10051;40.294;-3.754;2023-04-22T12:36:16;93712.78;;;21.97;39.80
19783;BME280;10051;40.294;-3.754;2023-04-22T12:38:41;93700.50;;;21.93;38.32
19783;BME280;10051;40.294;-3.754;2023-04-22T12:41:07;93709.88;;;22.10;37.79
19783;BME280;10051;40.294;-3.754;2023-04-22T12:43:33;93718.78;;;22.18;37.92
19783;BME280;10051;40.294;-3.754;2023-04-22T12:46:07;93668.28;;;21.86;38.00
19783;BME280;10051;40.294;-3.754;2023-04-22T12:48:33;93666.06;;;21.91;39.69
19783;BME280;10051;40.294;-3.754;2023-04-22T12:51:00;93703.31;;;22.38;39.40
19783;BME280;10051;40.294;-3.754;2023-04-22T12:53:26;93704.59;;;22.44;37.96
19783;BME280;10051;40.294;-3.754;2023-04-22T12:55:52;93682.69;;;22.38;38.32
19783;BME280;10051;40.294;-3.754;2023-04-22T12:58:18;93712.16;;;22.72;37.58
19783;BME280;10051;40.294;-3.754;2023-04-22T13:00:43;93699.94;;;22.75;37.27
19783;BME280;10051;40.294;-3.754;2023-04-22T13:03:09;93708.44;;;22.84;37.12
19783;BME280;10051;40.294;-3.754;2023-04-22T13:05:35;93683.84;;;22.75;36.68
19783;BME280;10051;40.294;-3.754;2023-04-22T13:08:01;93684.44;;;22.57;37.68